createdAt,value
2019-05-05T08:53:50.613Z,16.58
2019-05-05T08:56:17.340Z,16.66
2019-05-05T08:58:44.108Z,16.72
2019-05-05T09:01:10.896Z,16.77
2019-05-05T09:03:37.557Z,16.80
2019-05-05T09:06:04.805Z,16.80
2019-05-05T09:08:31.624Z,16.85
2019-05-05T09:10:58.295Z,16.83
2019-05-05T09:13:24.988Z,16.78
2019-05-05T09:15:51.734Z,16.89
2019-05-05T09:18:18.451Z,17.09
2019-05-05T09:20:45.133Z,17.20
2019-05-05T09:23:11.895Z,17.20
2019-05-05T09:25:41.492Z,17.19
2019-05-05T09:28:11.874Z,17.23
2019-05-05T09:30:44.368Z,17.15
2019-05-05T09:33:11.266Z,17.34
2019-05-05T09:35:38.011Z,17.34
2019-05-05T09:38:04.663Z,17.17
2019-05-05T09:40:38.686Z,17.22
2019-05-05T09:43:07.084Z,17.03
2019-05-05T09:45:34.199Z,17.03
2019-05-05T09:48:01.034Z,16.98
2019-05-05T09:50:27.741Z,16.98
2019-05-05T09:52:54.424Z,17.11
2019-05-05T09:55:24.088Z,16.95
2019-05-05T09:57:51.261Z,17.12
2019-05-05T10:00:17.950Z,17.04
2019-05-05T10:02:44.814Z,17.16
2019-05-05T10:05:11.803Z,17.34
2019-05-05T10:07:38.522Z,17.69
2019-05-05T10:10:05.783Z,17.88
2019-05-05T10:12:33.795Z,18.30
2019-05-05T10:15:00.657Z,18.49
2019-05-05T10:17:27.585Z,18.27
2019-05-05T10:19:54.729Z,18.63
2019-05-05T10:22:23.776Z,19.01
2019-05-05T10:24:55.192Z,19.48
2019-05-05T10:27:20.652Z,19.98
2019-05-05T10:29:47.329Z,19.92
2019-05-05T10:32:14.084Z,19.91
2019-05-05T10:34:40.750Z,19.95
2019-05-05T10:37:07.448Z,19.95
2019-05-05T10:39:44.839Z,19.33
2019-05-05T10:42:11.545Z,19.35
2019-05-05T10:44:38.244Z,19.86
2019-05-05T10:47:06.090Z,20.28
2019-05-05T10:49:33.688Z,19.88
2019-05-05T10:52:00.609Z,20.06
2019-05-05T10:54:40.587Z,19.93
2019-05-05T10:56:56.053Z,19.90
2019-05-05T10:59:23.811Z,19.65
2019-05-05T11:01:50.673Z,19.70
2019-05-05T11:04:17.313Z,19.98
2019-05-05T11:25:59.107Z,19.59
2019-05-05T11:28:25.924Z,19.81
2019-05-05T11:30:53.764Z,19.80
2019-05-05T11:33:28.614Z,19.91
2019-05-05T11:36:00.074Z,20.02
2019-05-05T11:38:26.859Z,19.62
2019-05-05T11:40:54.640Z,19.99
2019-05-05T11:43:21.581Z,20.27
2019-05-05T11:45:48.417Z,20.02
2019-05-05T11:48:15.132Z,20.12
2019-05-05T11:50:43.680Z,20.10
2019-05-05T11:53:10.522Z,20.23
2019-05-05T11:55:37.164Z,20.08
2019-05-05T11:58:04.008Z,20.05
2019-05-05T12:00:30.907Z,19.75
2019-05-05T12:02:58.245Z,19.67
2019-05-05T12:05:25.020Z,19.79
2019-05-05T12:07:51.713Z,19.72
2019-05-05T12:10:29.799Z,20.06
2019-05-05T12:12:58.931Z,19.53
2019-05-05T12:15:25.903Z,19.44
2019-05-05T12:17:54.516Z,19.61
2019-05-05T12:20:38.737Z,20.05
2019-05-05T12:23:06.753Z,20.22
2019-05-05T12:25:50.892Z,20.05
2019-05-05T12:28:25.493Z,20.31
2019-05-05T12:30:56.475Z,20.10
2019-05-05T12:33:24.295Z,20.12
2019-05-05T12:35:51.402Z,20.14
2019-05-05T12:38:18.172Z,20.27
2019-05-05T12:40:44.837Z,20.42
2019-05-05T12:43:14.197Z,20.36
2019-05-05T12:45:43.942Z,20.47
2019-05-05T12:48:15.597Z,20.77
2019-05-05T12:50:44.107Z,20.89
2019-05-05T12:53:10.938Z,20.63
2019-05-05T12:55:41.577Z,20.54
2019-05-05T12:58:06.276Z,20.47
2019-05-05T13:00:34.610Z,20.55
2019-05-05T13:03:01.298Z,20.86
2019-05-05T13:05:27.993Z,20.76
2019-05-05T13:07:54.861Z,20.46
2019-05-05T13:10:24.240Z,20.58
2019-05-05T13:12:50.784Z,20.52
2019-05-05T13:15:17.567Z,20.81
2019-05-05T13:17:44.260Z,20.33
2019-05-05T13:20:14.090Z,20.52
2019-05-05T13:22:49.658Z,20.49
2019-05-05T13:25:24.440Z,20.55
2019-05-05T13:27:51.793Z,20.45
2019-05-05T13:30:18.781Z,20.48
2019-05-05T13:32:45.599Z,20.51
2019-05-05T13:35:14.374Z,20.22
2019-05-05T13:37:41.294Z,20.42
2019-05-05T13:40:08.804Z,20.41
2019-05-05T13:42:36.734Z,20.49
2019-05-05T13:45:11.269Z,20.50
2019-05-05T13:47:38.120Z,20.35
2019-05-05T13:50:08.733Z,20.56
2019-05-05T13:52:35.599Z,20.30
2019-05-05T13:55:03.260Z,19.97
2019-05-05T13:57:30.117Z,19.79
2019-05-05T13:59:56.877Z,20.14
2019-05-05T14:02:24.421Z,20.42
2019-05-05T14:04:51.394Z,20.58
2019-05-05T14:07:18.069Z,20.77
2019-05-05T14:09:44.779Z,20.69
2019-05-05T14:12:11.564Z,20.64
2019-05-05T14:14:38.318Z,20.60
2019-05-05T14:17:06.188Z,20.68
2019-05-05T14:19:34.048Z,20.61
2019-05-05T14:24:33.934Z,20.93
2019-05-05T14:27:00.994Z,20.51
2019-05-05T14:29:38.652Z,20.18
2019-05-05T14:32:08.112Z,19.80
2019-05-05T14:34:36.612Z,19.61
2019-05-05T14:37:21.873Z,19.42
2019-05-05T14:39:48.573Z,19.22
2019-05-05T14:42:15.289Z,19.09
2019-05-05T14:44:43.744Z,19.23
2019-05-05T14:47:10.559Z,19.34
2019-05-05T14:49:37.244Z,19.13
2019-05-05T14:52:04.484Z,19.12
2019-05-05T14:54:31.275Z,18.94
2019-05-05T14:56:59.085Z,18.84
2019-05-05T14:59:25.838Z,18.80
2019-05-05T15:01:52.619Z,18.60
2019-05-05T15:04:20.150Z,18.67
2019-05-05T15:06:48.653Z,18.63
2019-05-05T15:09:17.341Z,18.64
2019-05-05T15:11:48.638Z,18.75
2019-05-05T15:14:15.336Z,18.62
2019-05-05T15:16:43.771Z,18.56
2019-05-05T15:19:10.586Z,18.64
2019-05-05T15:21:37.378Z,18.47
2019-05-05T15:24:04.128Z,18.41
2019-05-05T15:26:30.812Z,18.19
2019-05-05T15:29:01.657Z,18.17
2019-05-05T15:31:26.254Z,18.05
2019-05-05T15:33:53.590Z,18.05
2019-05-05T15:36:20.673Z,18.01
2019-05-05T15:38:47.431Z,17.95
2019-05-05T15:41:14.603Z,17.90
2019-05-05T15:43:41.473Z,17.79
2019-05-05T15:46:08.253Z,17.80
2019-05-05T15:48:34.939Z,17.80
2019-05-05T15:51:04.026Z,17.66
2019-05-05T15:53:30.419Z,17.58
2019-05-05T15:55:57.153Z,17.48
2019-05-05T15:58:23.894Z,17.33
2019-05-05T16:00:50.629Z,17.35
2019-05-05T16:03:17.591Z,17.30
2019-05-05T16:05:44.349Z,17.13
2019-05-05T16:08:13.999Z,17.12
2019-05-05T16:10:40.772Z,17.06
2019-05-05T16:13:07.530Z,16.82
2019-05-05T16:15:36.570Z,16.85
2019-05-05T16:18:14.093Z,16.87
2019-05-05T16:20:59.120Z,16.71
2019-05-05T16:23:27.674Z,16.72
2019-05-05T16:25:54.448Z,16.50
2019-05-05T16:28:21.215Z,16.66
2019-05-05T16:30:48.015Z,16.66
2019-05-05T16:33:14.706Z,16.59
2019-05-05T16:35:41.412Z,16.63
2019-05-05T16:38:08.194Z,16.47
2019-05-05T16:40:34.895Z,16.46
2019-05-05T16:43:01.622Z,16.39
2019-05-05T16:45:28.350Z,16.47
2019-05-05T16:47:55.041Z,16.42
2019-05-05T16:50:21.741Z,16.33
2019-05-05T16:52:56.513Z,16.35
2019-05-05T16:55:44.889Z,16.15
2019-05-05T16:58:13.783Z,16.19
2019-05-05T17:00:40.706Z,16.08
2019-05-05T17:03:07.458Z,16.06
2019-05-05T17:05:34.589Z,15.98
2019-05-05T17:08:01.511Z,15.94
2019-05-05T17:10:28.367Z,15.95
2019-05-05T17:12:56.400Z,15.89
2019-05-05T17:15:24.925Z,15.88
2019-05-05T17:17:54.062Z,15.86
2019-05-05T17:20:24.497Z,15.86
2019-05-05T17:22:55.959Z,15.86
2019-05-05T17:25:24.497Z,15.87
2019-05-05T17:27:51.421Z,15.87
2019-05-05T17:30:18.741Z,15.86
2019-05-05T17:32:45.424Z,15.84
2019-05-05T17:35:14.278Z,15.85
2019-05-05T17:37:40.996Z,15.80
2019-05-05T17:40:09.917Z,15.82
2019-05-05T17:42:44.634Z,15.81
2019-05-05T17:45:24.952Z,15.84
2019-05-05T17:48:11.774Z,15.83
2019-05-05T17:50:55.281Z,15.73
2019-05-05T17:53:35.850Z,15.73
2019-05-05T17:56:04.345Z,15.61
2019-05-05T17:58:31.067Z,15.49
2019-05-05T18:00:59.668Z,15.25
2019-05-05T18:03:31.239Z,15.05
2019-05-05T18:06:08.955Z,14.87
2019-05-05T18:08:44.505Z,15.23
2019-05-05T18:11:22.506Z,15.32
2019-05-05T18:14:05.973Z,15.42
2019-05-05T18:16:33.834Z,15.45
2019-05-05T18:19:00.863Z,15.49
2019-05-05T18:21:31.729Z,15.49
2019-05-05T18:23:56.175Z,15.51
2019-05-05T18:26:24.343Z,15.57
2019-05-05T18:28:51.283Z,15.50
2019-05-05T18:31:18.019Z,15.47
2019-05-05T18:33:44.702Z,15.51
2019-05-05T18:36:11.371Z,15.51
2019-05-05T18:38:38.355Z,15.41
2019-05-05T18:41:16.174Z,15.38
2019-05-05T18:43:55.336Z,15.22
2019-05-05T18:46:24.352Z,15.37
2019-05-05T18:48:51.100Z,15.39
2019-05-05T18:51:17.886Z,15.36
2019-05-05T18:53:44.587Z,15.30
2019-05-05T18:56:11.291Z,15.42
2019-05-05T18:58:38.059Z,15.52
2019-05-05T19:01:21.802Z,15.59
2019-05-05T19:04:04.202Z,15.58
2019-05-05T19:06:47.932Z,15.60
2019-05-05T19:09:16.515Z,15.54
2019-05-05T19:11:43.692Z,15.49
2019-05-05T19:14:10.732Z,15.53
2019-05-05T19:16:37.702Z,15.55
2019-05-05T19:19:05.413Z,15.56
2019-05-05T19:21:35.867Z,15.50
2019-05-05T19:24:03.816Z,15.44
2019-05-05T19:26:30.730Z,15.49
2019-05-05T19:28:57.577Z,15.50
2019-05-05T19:31:24.289Z,15.43
2019-05-05T19:33:51.123Z,15.43
2019-05-05T19:36:17.878Z,15.45
2019-05-05T19:38:44.580Z,15.42
2019-05-05T19:41:11.338Z,15.35
2019-05-05T19:43:39.853Z,15.14
2019-05-05T19:46:08.354Z,14.99
2019-05-05T19:48:35.352Z,14.77
2019-05-05T19:51:04.776Z,14.59
2019-05-05T19:53:35.231Z,14.54
2019-05-05T19:56:01.418Z,14.47
2019-05-05T19:58:28.130Z,14.16
2019-05-05T20:00:56.782Z,14.18
2019-05-05T20:03:24.153Z,14.13
2019-05-05T20:05:50.986Z,13.96
2019-05-05T20:08:17.673Z,13.84
2019-05-05T20:10:44.459Z,13.80
2019-05-05T20:13:11.161Z,13.78
2019-05-05T20:15:39.694Z,13.78
2019-05-05T20:18:06.468Z,13.48
2019-05-05T20:20:33.727Z,13.58
2019-05-05T20:23:00.533Z,13.59
2019-05-05T20:25:27.327Z,13.44
2019-05-05T20:27:55.972Z,13.36
2019-05-05T20:30:24.560Z,13.30
2019-05-05T20:32:59.429Z,13.13
2019-05-05T20:35:27.950Z,13.22
2019-05-05T20:37:56.631Z,13.13
2019-05-05T20:40:25.204Z,13.05
2019-05-05T20:42:54.253Z,12.86
2019-05-05T20:45:23.866Z,12.72
2019-05-05T20:47:53.513Z,12.58
2019-05-05T20:50:19.899Z,12.60
2019-05-05T20:52:46.747Z,12.48
2019-05-05T20:55:14.172Z,12.49
2019-05-05T20:57:41.159Z,12.58
2019-05-05T21:00:09.902Z,12.44
2019-05-05T21:02:38.583Z,12.44
2019-05-05T21:05:05.562Z,12.37
2019-05-05T21:07:34.662Z,12.35
2019-05-05T21:10:01.792Z,12.37
2019-05-05T21:12:39.124Z,12.42
2019-05-05T21:14:57.173Z,12.41
2019-05-05T21:17:24.250Z,12.37
2019-05-05T21:19:51.089Z,12.27
2019-05-05T21:22:36.627Z,12.18
2019-05-05T21:25:07.218Z,12.10
2019-05-05T21:27:34.145Z,12.14
2019-05-05T21:30:03.888Z,12.00
2019-05-05T21:32:29.973Z,11.90
2019-05-05T21:34:56.762Z,11.83
2019-05-05T21:37:24.863Z,11.87
2019-05-05T21:39:51.892Z,11.77
2019-05-05T21:42:18.836Z,11.69
2019-05-05T21:44:45.668Z,11.64
2019-05-05T21:47:14.163Z,11.61
2019-05-05T21:49:41.036Z,11.60
2019-05-05T21:52:14.327Z,11.49
2019-05-05T21:54:52.104Z,11.42
2019-05-05T21:57:20.846Z,11.38
2019-05-05T21:59:55.479Z,11.35
2019-05-05T22:02:17.083Z,11.27
2019-05-05T22:04:43.967Z,11.19
2019-05-05T22:07:10.761Z,11.17
2019-05-05T22:09:37.445Z,11.12
2019-05-05T22:12:04.298Z,11.14
2019-05-05T22:14:31.010Z,11.06
2019-05-05T22:16:57.807Z,11.05
2019-05-05T22:19:26.387Z,11.03
2019-05-05T22:22:00.754Z,10.87
2019-05-05T22:24:27.521Z,10.83
2019-05-05T22:26:54.375Z,10.80
2019-05-05T22:29:21.160Z,10.82
2019-05-05T22:31:48.025Z,10.70
2019-05-05T22:34:14.780Z,10.76
2019-05-05T22:36:41.703Z,10.77
2019-05-05T22:39:11.021Z,10.60
2019-05-05T22:41:38.174Z,10.60
2019-05-05T22:44:05.002Z,10.49
2019-05-05T22:46:31.972Z,10.44
2019-05-05T22:48:58.853Z,10.49
2019-05-05T22:51:25.662Z,10.37
2019-05-05T22:53:54.665Z,10.30
2019-05-05T22:56:21.032Z,10.36
2019-05-05T22:58:47.715Z,10.30
2019-05-05T23:01:14.694Z,10.33
2019-05-05T23:03:55.332Z,10.31
2019-05-05T23:06:24.586Z,10.27
2019-05-05T23:08:51.433Z,10.31
2019-05-05T23:11:18.133Z,10.29
2019-05-05T23:13:44.897Z,10.22
2019-05-05T23:16:14.629Z,10.28
2019-05-05T23:18:41.462Z,10.34
2019-05-05T23:21:10.065Z,10.17
2019-05-05T23:23:41.383Z,10.06
2019-05-05T23:26:13.973Z,9.57
2019-05-05T23:28:40.917Z,9.80
2019-05-05T23:31:07.612Z,9.90
2019-05-05T23:33:34.638Z,9.96
2019-05-05T23:36:01.401Z,9.97
2019-05-05T23:38:28.180Z,9.91
2019-05-05T23:40:54.993Z,9.79
2019-05-05T23:43:21.685Z,9.78
2019-05-05T23:45:48.516Z,9.69
2019-05-05T23:48:15.245Z,9.68
2019-05-05T23:50:42.019Z,9.61
2019-05-05T23:53:08.683Z,9.66
2019-05-05T23:55:35.400Z,9.68
2019-05-05T23:58:03.776Z,9.73
